KCNM/CNM METAR and TAF weather

Enter ICAO airport designator
Station Type Date Time Source
KCNM METAR 2018/10/21 03:53 UTC NOAA

KCNM 210353Z AUTO 21005KT 10SM -RA OVC100 14/12 A3038 RMK AO2 RAB21 SLP257 P0000 T01390117


Station Type Date Time Source
KCNM Decoded METAR 2018/10/21 03:53 UTC NOAA

CARLSBAD CAVERN CITY, NM, United States (KCNM) 32-20N 104-16W 985M
Oct 20, 2018 - 11:53 PM EDT / 2018.10.21 0353 UTC
Wind: from the SSW (210 degrees) at 6 MPH (5 KT):0
Visibility: 10 mile(s):0
Sky conditions: overcast
Weather: light rain
Precipitation last hour: A trace
Temperature: 57.0 F (13.9 C)
Dew Point: 53.1 F (11.7 C)
Relative Humidity: 86%
Pressure (altimeter): 30.38 in. Hg (1028 hPa)
ob: KCNM 210353Z AUTO 21005KT 10SM -RA OVC100 14/12 A3038 RMK AO2 RAB21 SLP257 P0000 T01390117
cycle: 4

Station Type Date Time Source
KCNM TAF 2018/10/20 18:21 UTC NOAA

TAF KCNM 201720Z 2018/2118 06010KT P6SM SCT100 BKN250
FM202200 15006KT P6SM BKN080


Example: see airport list